TimeICT,TemperatureF,Dew PointF,Humidity,Sea Level PressureIn,VisibilityMPH,Wind Direction,Wind SpeedMPH,Gust SpeedMPH,PrecipitationIn,Events,Conditions,WindDirDegrees,DateUTC
6:00 AM,78.8,75.2,89,29.83,6.2,SSW,6.9,-,N/A,,Scattered Clouds,200,2012-10-02 23:00:00
7:00 AM,77,76,97,29.84,6,Calm,Calm,,,,Partly Cloudy,,2012-10-03 00:00:00
7:00 AM,78.8,75.2,89,29.86,6.2,SSW,5.8,-,N/A,,Scattered Clouds,210,2012-10-03 00:00:00
7:30 AM,78.8,75.2,89,29.86,6.2,SSW,3.5,-,N/A,,Scattered Clouds,210,2012-10-03 00:30:00
8:00 AM,78.8,75.2,89,29.89,6.2,SSW,6.9,-,N/A,,Scattered Clouds,200,2012-10-03 01:00:00
8:30 AM,80.6,73.4,79,29.89,6.2,South,5.8,-,N/A,,Scattered Clouds,180,2012-10-03 01:30:00
9:00 AM,80.6,73.4,79,29.89,6.2,SSE,3.5,-,N/A,,Mostly Cloudy,150,2012-10-03 02:00:00
9:30 AM,82.4,75.2,79,29.89,6.2,ESE,4.6,-,N/A,,Mostly Cloudy,120,2012-10-03 02:30:00
10:00 AM,84.2,75.2,74,29.89,6.2,Variable,3.5,-,N/A,,Mostly Cloudy,0,2012-10-03 03:00:00
10:30 AM,84.2,73.4,70,29.89,6.2,Variable,2.3,-,N/A,,Mostly Cloudy,0,2012-10-03 03:30:00
11:00 AM,84.2,73.4,70,29.89,6.2,Variable,2.3,-,N/A,,Mostly Cloudy,0,2012-10-03 04:00:00
11:30 AM,86.0,73.4,66,29.86,6.2,WSW,4.6,-,N/A,,Mostly Cloudy,250,2012-10-03 04:30:00
12:00 PM,87.8,73.4,62,29.86,6.2,Variable,3.5,-,N/A,,Mostly Cloudy,0,2012-10-03 05:00:00
12:30 PM,87.8,73.4,62,29.83,6.2,NNW,6.9,-,N/A,,Mostly Cloudy,330,2012-10-03 05:30:00
1:00 PM,87.8,73.4,62,29.83,6.2,NNW,5.8,-,N/A,,Mostly Cloudy,330,2012-10-03 06:00:00
1:30 PM,87.8,73.4,62,29.80,6.2,NNW,6.9,-,N/A,,Mostly Cloudy,330,2012-10-03 06:30:00
2:00 PM,87.8,71.6,58,29.80,6.2,NNW,6.9,-,N/A,,Scattered Clouds,340,2012-10-03 07:00:00
2:30 PM,87.8,73.4,62,29.77,6.2,NNW,6.9,-,N/A,,Scattered Clouds,340,2012-10-03 07:30:00
3:00 PM,89.6,73.4,59,29.74,6.2,NW,3.5,-,N/A,,Partly Cloudy,320,2012-10-03 08:00:00
3:30 PM,87.8,71.6,58,29.74,6.2,North,3.5,-,N/A,,Partly Cloudy,10,2012-10-03 08:30:00
4:00 PM,89.6,73.4,59,29.74,6.2,NE,3.5,-,N/A,,Partly Cloudy,40,2012-10-03 09:00:00
4:30 PM,87.8,71.6,58,29.74,6.2,NNW,6.9,-,N/A,,Partly Cloudy,340,2012-10-03 09:30:00
5:00 PM,87.8,73.4,62,29.77,5.6,NW,4.6,-,N/A,Rain,Rain,310,2012-10-03 10:00:00
5:30 PM,84.2,71.6,66,29.77,5.6,South,8.1,-,N/A,,Mostly Cloudy,190,2012-10-03 10:30:00
6:00 PM,82.4,73.4,74,29.77,5.6,South,5.8,-,N/A,,Mostly Cloudy,180,2012-10-03 11:00:00
6:30 PM,80.6,73.4,79,29.77,5.6,South,3.5,-,N/A,,Mostly Cloudy,170,2012-10-03 11:30:00
7:00 PM,80.6,73.4,79,29.80,5.6,SSW,4.6,-,N/A,,Mostly Cloudy,210,2012-10-03 12:00:00
7:30 PM,80.6,75.2,84,29.80,5.6,South,4.6,-,N/A,,Mostly Cloudy,170,2012-10-03 12:30:00
8:00 PM,80.6,75.2,84,29.80,5.6,SSE,3.5,-,N/A,,Mostly Cloudy,160,2012-10-03 13:00:00
9:30 PM,80.6,75.2,84,29.80,5.6,SSW,3.5,-,N/A,,Scattered Clouds,210,2012-10-03 14:30:00
10:00 PM,82.4,75.2,79,29.80,5.6,SSW,4.6,-,N/A,,Scattered Clouds,210,2012-10-03 15:00:00
10:30 PM,80.6,75.2,84,29.83,5.6,SSW,3.5,-,N/A,,Scattered Clouds,210,2012-10-03 15:30:00
11:00 PM,80.6,75.2,84,29.83,5.6,SSW,4.6,-,N/A,,Scattered Clouds,210,2012-10-03 16:00:00